sensor_id;sensor_type;location;lat;lon;timestamp;P1;durP1;ratioP1;P2;durP2;ratioP2
572;SDS011;271;51.114;13.780;2024-02-26T00:01:54;24.55;;;9.77;;
572;SDS011;271;51.114;13.780;2024-02-26T00:04:43;26.58;;;10.93;;
572;SDS011;271;51.114;13.780;2024-02-26T00:07:31;24.80;;;11.05;;
572;SDS011;271;51.114;13.780;2024-02-26T00:10:19;25.58;;;10.18;;
572;SDS011;271;51.114;13.780;2024-02-26T00:13:06;31.13;;;13.35;;
572;SDS011;271;51.114;13.780;2024-02-26T00:15:54;26.85;;;11.43;;
572;SDS011;271;51.114;13.780;2024-02-26T00:18:42;30.25;;;12.10;;
572;SDS011;271;51.114;13.780;2024-02-26T00:21:31;28.92;;;13.05;;
572;SDS011;271;51.114;13.780;2024-02-26T00:24:18;28.23;;;11.63;;
572;SDS011;271;51.114;13.780;2024-02-26T00:27:06;27.92;;;12.65;;
572;SDS011;271;51.114;13.780;2024-02-26T00:29:54;29.33;;;13.30;;
572;SDS011;271;51.114;13.780;2024-02-26T00:32:42;30.48;;;13.57;;
572;SDS011;271;51.114;13.780;2024-02-26T00:35:29;30.20;;;13.70;;
572;SDS011;271;51.114;13.780;2024-02-26T00:38:18;28.83;;;13.32;;
572;SDS011;271;51.114;13.780;2024-02-26T00:41:06;32.42;;;12.80;;
572;SDS011;271;51.114;13.780;2024-02-26T00:43:54;27.40;;;12.10;;
572;SDS011;271;51.114;13.780;2024-02-26T00:46:41;26.85;;;11.23;;
572;SDS011;271;51.114;13.780;2024-02-26T00:49:29;27.38;;;11.38;;
572;SDS011;271;51.114;13.780;2024-02-26T00:52:17;29.73;;;10.88;;
572;SDS011;271;51.114;13.780;2024-02-26T00:55:06;28.05;;;11.60;;
572;SDS011;271;51.114;13.780;2024-02-26T00:57:54;25.08;;;11.10;;
572;SDS011;271;51.114;13.780;2024-02-26T01:00:42;27.38;;;11.65;;
572;SDS011;271;51.114;13.780;2024-02-26T01:03:29;26.90;;;10.57;;
572;SDS011;271;51.114;13.780;2024-02-26T01:06:17;28.75;;;11.68;;
572;SDS011;271;51.114;13.780;2024-02-26T01:09:05;27.40;;;12.40;;
572;SDS011;271;51.114;13.780;2024-02-26T01:11:55;26.63;;;11.50;;
572;SDS011;271;51.114;13.780;2024-02-26T01:14:43;29.63;;;12.77;;
572;SDS011;271;51.114;13.780;2024-02-26T01:17:30;30.73;;;13.07;;
572;SDS011;271;51.114;13.780;2024-02-26T01:20:18;27.95;;;11.82;;
572;SDS011;271;51.114;13.780;2024-02-26T01:23:06;29.50;;;12.40;;
572;SDS011;271;51.114;13.780;2024-02-26T01:25:54;32.17;;;12.60;;
572;SDS011;271;51.114;13.780;2024-02-26T01:28:43;31.20;;;12.95;;
572;SDS011;271;51.114;13.780;2024-02-26T01:31:30;33.20;;;12.85;;
572;SDS011;271;51.114;13.780;2024-02-26T01:34:18;27.75;;;11.90;;
572;SDS011;271;51.114;13.780;2024-02-26T01:37:06;28.17;;;12.35;;
572;SDS011;271;51.114;13.780;2024-02-26T01:39:53;32.00;;;12.52;;
572;SDS011;271;51.114;13.780;2024-02-26T01:42:41;28.15;;;11.27;;
572;SDS011;271;51.114;13.780;2024-02-26T01:45:30;31.15;;;11.73;;
572;SDS011;271;51.114;13.780;2024-02-26T01:48:18;27.67;;;11.85;;
572;SDS011;271;51.114;13.780;2024-02-26T01:51:06;28.15;;;12.38;;
572;SDS011;271;51.114;13.780;2024-02-26T01:53:54;30.40;;;12.55;;
572;SDS011;271;51.114;13.780;2024-02-26T01:56:41;30.38;;;12.45;;
572;SDS011;271;51.114;13.780;2024-02-26T01:59:29;28.73;;;12.35;;
572;SDS011;271;51.114;13.780;2024-02-26T02:02:19;31.55;;;12.57;;
572;SDS011;271;51.114;13.780;2024-02-26T02:05:06;29.42;;;12.35;;
572;SDS011;271;51.114;13.780;2024-02-26T02:07:55;29.13;;;12.55;;
572;SDS011;271;51.114;13.780;2024-02-26T02:10:44;30.50;;;11.82;;
572;SDS011;271;51.114;13.780;2024-02-26T02:13:33;29.98;;;12.68;;
572;SDS011;271;51.114;13.780;2024-02-26T02:16:21;28.38;;;11.90;;
572;SDS011;271;51.114;13.780;2024-02-26T02:19:10;32.67;;;14.07;;
572;SDS011;271;51.114;13.780;2024-02-26T02:21:59;25.88;;;11.25;;
572;SDS011;271;51.114;13.780;2024-02-26T02:24:47;30.80;;;12.77;;
572;SDS011;271;51.114;13.780;2024-02-26T02:27:36;31.40;;;13.15;;
572;SDS011;271;51.114;13.780;2024-02-26T02:30:24;30.83;;;12.40;;
572;SDS011;271;51.114;13.780;2024-02-26T02:33:15;29.88;;;12.75;;
572;SDS011;271;51.114;13.780;2024-02-26T02:36:03;29.77;;;12.77;;
572;SDS011;271;51.114;13.780;2024-02-26T02:38:56;28.85;;;12.65;;
572;SDS011;271;51.114;13.780;2024-02-26T02:41:44;29.35;;;12.70;;
572;SDS011;271;51.114;13.780;2024-02-26T02:44:31;30.77;;;12.32;;
572;SDS011;271;51.114;13.780;2024-02-26T02:47:19;31.38;;;13.70;;
572;SDS011;271;51.114;13.780;2024-02-26T02:50:07;30.45;;;13.00;;
572;SDS011;271;51.114;13.780;2024-02-26T02:52:55;28.13;;;12.00;;
572;SDS011;271;51.114;13.780;2024-02-26T02:55:44;34.05;;;12.88;;
572;SDS011;271;51.114;13.780;2024-02-26T02:58:32;27.55;;;12.05;;
572;SDS011;271;51.114;13.780;2024-02-26T03:01:19;31.98;;;13.57;;
572;SDS011;271;51.114;13.780;2024-02-26T03:04:07;31.38;;;11.90;;
572;SDS011;271;51.114;13.780;2024-02-26T03:06:55;27.88;;;12.02;;
572;SDS011;271;51.114;13.780;2024-02-26T03:09:43;30.23;;;12.80;;
572;SDS011;271;51.114;13.780;2024-02-26T03:12:33;30.77;;;12.70;;
572;SDS011;271;51.114;13.780;2024-02-26T03:15:20;28.25;;;11.43;;
572;SDS011;271;51.114;13.780;2024-02-26T03:18:08;30.38;;;11.82;;
572;SDS011;271;51.114;13.780;2024-02-26T03:20:56;27.60;;;12.45;;
572;SDS011;271;51.114;13.780;2024-02-26T03:23:44;30.08;;;13.35;;
572;SDS011;271;51.114;13.780;2024-02-26T03:26:31;30.00;;;13.35;;
572;SDS011;271;51.114;13.780;2024-02-26T03:29:20;28.27;;;12.10;;
572;SDS011;271;51.114;13.780;2024-02-26T03:32:08;27.70;;;11.07;;
572;SDS011;271;51.114;13.780;2024-02-26T03:34:56;29.75;;;12.48;;
572;SDS011;271;51.114;13.780;2024-02-26T03:37:43;28.10;;;12.05;;
572;SDS011;271;51.114;13.780;2024-02-26T03:40:33;29.02;;;10.93;;
572;SDS011;271;51.114;13.780;2024-02-26T03:43:21;27.67;;;10.68;;
572;SDS011;271;51.114;13.780;2024-02-26T03:46:10;27.17;;;11.80;;
572;SDS011;271;51.114;13.780;2024-02-26T03:48:59;29.55;;;12.50;;
572;SDS011;271;51.114;13.780;2024-02-26T03:51:47;26.60;;;10.80;;
572;SDS011;271;51.114;13.780;2024-02-26T03:54:34;27.55;;;10.60;;
572;SDS011;271;51.114;13.780;2024-02-26T03:57:22;27.38;;;10.18;;
572;SDS011;271;51.114;13.780;2024-02-26T04:00:10;28.83;;;12.50;;
572;SDS011;271;51.114;13.780;2024-02-26T04:03:00;27.67;;;12.20;;
572;SDS011;271;51.114;13.780;2024-02-26T04:05:48;28.30;;;11.70;;
572;SDS011;271;51.114;13.780;2024-02-26T04:08:35;31.08;;;12.00;;
572;SDS011;271;51.114;13.780;2024-02-26T04:11:23;29.23;;;11.80;;
572;SDS011;271;51.114;13.780;2024-02-26T04:14:11;26.90;;;11.30;;
572;SDS011;271;51.114;13.780;2024-02-26T04:16:58;30.33;;;12.05;;
572;SDS011;271;51.114;13.780;2024-02-26T04:19:47;30.25;;;12.30;;
572;SDS011;271;51.114;13.780;2024-02-26T04:22:35;29.05;;;11.98;;
572;SDS011;271;51.114;13.780;2024-02-26T04:25:23;30.58;;;13.50;;
572;SDS011;271;51.114;13.780;2024-02-26T04:28:10;29.33;;;13.07;;
572;SDS011;271;51.114;13.780;2024-02-26T04:30:58;29.77;;;12.15;;
572;SDS011;271;51.114;13.780;2024-02-26T04:33:46;27.60;;;12.25;;
572;SDS011;271;51.114;13.780;2024-02-26T04:36:37;30.05;;;11.77;;
572;SDS011;271;51.114;13.780;2024-02-26T04:39:25;30.70;;;13.15;;
572;SDS011;271;51.114;13.780;2024-02-26T04:42:13;28.33;;;11.90;;
572;SDS011;271;51.114;13.780;2024-02-26T04:45:00;30.30;;;12.70;;
572;SDS011;271;51.114;13.780;2024-02-26T04:47:48;29.77;;;13.45;;
572;SDS011;271;51.114;13.780;2024-02-26T04:50:36;28.83;;;11.65;;
572;SDS011;271;51.114;13.780;2024-02-26T04:53:25;29.90;;;11.90;;
572;SDS011;271;51.114;13.780;2024-02-26T04:56:13;28.70;;;12.45;;
572;SDS011;271;51.114;13.780;2024-02-26T04:59:01;28.75;;;11.98;;
572;SDS011;271;51.114;13.780;2024-02-26T05:01:49;30.15;;;13.07;;
572;SDS011;271;51.114;13.780;2024-02-26T05:04:37;29.27;;;12.80;;
572;SDS011;271;51.114;13.780;2024-02-26T05:07:25;33.22;;;13.25;;
572;SDS011;271;51.114;13.780;2024-02-26T05:10:14;33.50;;;12.50;;
572;SDS011;271;51.114;13.780;2024-02-26T05:13:01;33.33;;;13.38;;
572;SDS011;271;51.114;13.780;2024-02-26T05:15:49;30.45;;;12.82;;
572;SDS011;271;51.114;13.780;2024-02-26T05:18:38;30.42;;;13.32;;
572;SDS011;271;51.114;13.780;2024-02-26T05:21:25;30.80;;;13.15;;
572;SDS011;271;51.114;13.780;2024-02-26T05:24:13;30.40;;;11.75;;
572;SDS011;271;51.114;13.780;2024-02-26T05:27:03;31.40;;;13.65;;
572;SDS011;271;51.114;13.780;2024-02-26T05:29:51;29.50;;;11.57;;
572;SDS011;271;51.114;13.780;2024-02-26T05:32:40;30.23;;;13.43;;
572;SDS011;271;51.114;13.780;2024-02-26T05:35:27;29.05;;;12.07;;
572;SDS011;271;51.114;13.780;2024-02-26T05:38:15;31.60;;;12.60;;
572;SDS011;271;51.114;13.780;2024-02-26T05:41:03;28.17;;;11.95;;
572;SDS011;271;51.114;13.780;2024-02-26T05:43:53;27.42;;;11.60;;
572;SDS011;271;51.114;13.780;2024-02-26T05:46:40;28.90;;;11.80;;
572;SDS011;271;51.114;13.780;2024-02-26T05:49:28;29.15;;;12.00;;
572;SDS011;271;51.114;13.780;2024-02-26T05:52:17;30.77;;;12.50;;
572;SDS011;271;51.114;13.780;2024-02-26T05:55:05;34.25;;;13.18;;
572;SDS011;271;51.114;13.780;2024-02-26T05:57:53;28.42;;;11.60;;
572;SDS011;271;51.114;13.780;2024-02-26T06:00:42;32.75;;;11.77;;
572;SDS011;271;51.114;13.780;2024-02-26T06:03:30;30.27;;;11.65;;
572;SDS011;271;51.114;13.780;2024-02-26T06:06:18;26.38;;;10.75;;
572;SDS011;271;51.114;13.780;2024-02-26T06:09:07;28.30;;;12.27;;
572;SDS011;271;51.114;13.780;2024-02-26T06:11:57;27.75;;;10.65;;
572;SDS011;271;51.114;13.780;2024-02-26T06:14:44;28.05;;;11.45;;
572;SDS011;271;51.114;13.780;2024-02-26T06:17:34;31.05;;;13.57;;
572;SDS011;271;51.114;13.780;2024-02-26T06:20:22;29.40;;;13.27;;
572;SDS011;271;51.114;13.780;2024-02-26T06:23:09;27.67;;;12.30;;
572;SDS011;271;51.114;13.780;2024-02-26T06:25:57;33.92;;;12.88;;
572;SDS011;271;51.114;13.780;2024-02-26T06:28:44;33.03;;;13.32;;
572;SDS011;271;51.114;13.780;2024-02-26T06:31:32;32.08;;;12.90;;
572;SDS011;271;51.114;13.780;2024-02-26T06:34:21;32.28;;;12.43;;
572;SDS011;271;51.114;13.780;2024-02-26T06:37:09;29.83;;;12.45;;
572;SDS011;271;51.114;13.780;2024-02-26T06:39:57;28.17;;;12.38;;
572;SDS011;271;51.114;13.780;2024-02-26T06:42:44;29.10;;;12.95;;
572;SDS011;271;51.114;13.780;2024-02-26T06:45:32;31.98;;;12.95;;
572;SDS011;271;51.114;13.780;2024-02-26T06:48:20;37.45;;;14.73;;
572;SDS011;271;51.114;13.780;2024-02-26T06:51:09;30.02;;;12.57;;
572;SDS011;271;51.114;13.780;2024-02-26T06:53:57;32.38;;;12.70;;
572;SDS011;271;51.114;13.780;2024-02-26T06:56:46;33.10;;;13.60;;
572;SDS011;271;51.114;13.780;2024-02-26T06:59:41;33.13;;;16.20;;
572;SDS011;271;51.114;13.780;2024-02-26T07:02:32;32.10;;;11.50;;
572;SDS011;271;51.114;13.780;2024-02-26T07:05:20;33.63;;;12.68;;
572;SDS011;271;51.114;13.780;2024-02-26T07:08:09;31.73;;;13.40;;
572;SDS011;271;51.114;13.780;2024-02-26T07:10:57;30.92;;;13.52;;
572;SDS011;271;51.114;13.780;2024-02-26T07:13:45;28.98;;;13.35;;
572;SDS011;271;51.114;13.780;2024-02-26T07:16:33;30.50;;;11.80;;
572;SDS011;271;51.114;13.780;2024-02-26T07:19:20;28.67;;;11.95;;
572;SDS011;271;51.114;13.780;2024-02-26T07:22:08;26.55;;;11.68;;
572;SDS011;271;51.114;13.780;2024-02-26T07:24:57;27.10;;;10.48;;
572;SDS011;271;51.114;13.780;2024-02-26T07:27:50;29.08;;;11.95;;
572;SDS011;271;51.114;13.780;2024-02-26T07:30:56;26.40;;;11.00;;
572;SDS011;271;51.114;13.780;2024-02-26T07:33:45;26.85;;;10.98;;
572;SDS011;271;51.114;13.780;2024-02-26T07:36:41;24.33;;;9.07;;
572;SDS011;271;51.114;13.780;2024-02-26T07:39:33;24.15;;;9.13;;
572;SDS011;271;51.114;13.780;2024-02-26T07:45:51;28.35;;;9.55;;
572;SDS011;271;51.114;13.780;2024-02-26T07:48:41;25.33;;;9.60;;
572;SDS011;271;51.114;13.780;2024-02-26T07:51:32;23.40;;;7.78;;
572;SDS011;271;51.114;13.780;2024-02-26T07:54:25;22.35;;;8.60;;
572;SDS011;271;51.114;13.780;2024-02-26T07:57:14;25.38;;;8.25;;
572;SDS011;271;51.114;13.780;2024-02-26T08:00:09;25.00;;;8.02;;
572;SDS011;271;51.114;13.780;2024-02-26T08:02:57;25.50;;;9.75;;
572;SDS011;271;51.114;13.780;2024-02-26T08:05:54;26.13;;;9.23;;
572;SDS011;271;51.114;13.780;2024-02-26T08:08:46;23.90;;;8.50;;
572;SDS011;271;51.114;13.780;2024-02-26T08:11:33;24.17;;;7.78;;
572;SDS011;271;51.114;13.780;2024-02-26T08:14:24;21.75;;;7.38;;
572;SDS011;271;51.114;13.780;2024-02-26T08:17:13;24.45;;;7.65;;
572;SDS011;271;51.114;13.780;2024-02-26T08:20:01;22.25;;;6.95;;
572;SDS011;271;51.114;13.780;2024-02-26T08:22:49;23.15;;;6.97;;
572;SDS011;271;51.114;13.780;2024-02-26T08:25:37;23.77;;;7.13;;
572;SDS011;271;51.114;13.780;2024-02-26T08:28:27;25.30;;;7.50;;
572;SDS011;271;51.114;13.780;2024-02-26T08:31:18;25.23;;;7.88;;
572;SDS011;271;51.114;13.780;2024-02-26T08:34:07;21.17;;;6.07;;
572;SDS011;271;51.114;13.780;2024-02-26T08:36:55;25.52;;;8.45;;
572;SDS011;271;51.114;13.780;2024-02-26T08:39:43;25.48;;;7.72;;
572;SDS011;271;51.114;13.780;2024-02-26T08:42:40;23.30;;;7.30;;
572;SDS011;271;51.114;13.780;2024-02-26T08:45:28;24.43;;;7.73;;
572;SDS011;271;51.114;13.780;2024-02-26T08:48:16;22.83;;;7.83;;
572;SDS011;271;51.114;13.780;2024-02-26T08:51:06;22.10;;;7.30;;
572;SDS011;271;51.114;13.780;2024-02-26T08:53:54;22.83;;;8.10;;
572;SDS011;271;51.114;13.780;2024-02-26T08:56:42;21.90;;;6.60;;
572;SDS011;271;51.114;13.780;2024-02-26T08:59:29;22.80;;;8.87;;
572;SDS011;271;51.114;13.780;2024-02-26T09:02:17;21.10;;;7.13;;
572;SDS011;271;51.114;13.780;2024-02-26T09:05:05;23.40;;;9.10;;
572;SDS011;271;51.114;13.780;2024-02-26T09:07:55;23.87;;;8.03;;
572;SDS011;271;51.114;13.780;2024-02-26T09:10:43;23.33;;;8.50;;
572;SDS011;271;51.114;13.780;2024-02-26T09:13:30;21.30;;;8.13;;
572;SDS011;271;51.114;13.780;2024-02-26T09:16:20;22.00;;;8.50;;
572;SDS011;271;51.114;13.780;2024-02-26T09:19:08;23.10;;;8.37;;
572;SDS011;271;51.114;13.780;2024-02-26T09:22:01;23.40;;;7.80;;
572;SDS011;271;51.114;13.780;2024-02-26T09:24:50;22.87;;;8.27;;
572;SDS011;271;51.114;13.780;2024-02-26T09:27:39;22.73;;;7.93;;
572;SDS011;271;51.114;13.780;2024-02-26T09:30:27;21.37;;;7.60;;
572;SDS011;271;51.114;13.780;2024-02-26T09:33:15;23.53;;;7.70;;
572;SDS011;271;51.114;13.780;2024-02-26T09:36:03;19.50;;;6.77;;
572;SDS011;271;51.114;13.780;2024-02-26T09:38:52;22.60;;;7.77;;
572;SDS011;271;51.114;13.780;2024-02-26T09:41:41;22.10;;;8.30;;
572;SDS011;271;51.114;13.780;2024-02-26T09:44:29;22.97;;;7.60;;
572;SDS011;271;51.114;13.780;2024-02-26T09:47:19;22.80;;;8.10;;
572;SDS011;271;51.114;13.780;2024-02-26T09:50:07;22.23;;;8.53;;
572;SDS011;271;51.114;13.780;2024-02-26T09:52:58;23.87;;;8.10;;
572;SDS011;271;51.114;13.780;2024-02-26T09:55:48;21.20;;;7.93;;
572;SDS011;271;51.114;13.780;2024-02-26T09:58:37;24.57;;;7.97;;
572;SDS011;271;51.114;13.780;2024-02-26T10:01:26;21.53;;;7.20;;
572;SDS011;271;51.114;13.780;2024-02-26T10:04:17;23.57;;;7.50;;
572;SDS011;271;51.114;13.780;2024-02-26T10:07:07;23.60;;;7.50;;
572;SDS011;271;51.114;13.780;2024-02-26T10:09:57;20.73;;;8.13;;
572;SDS011;271;51.114;13.780;2024-02-26T10:12:45;23.00;;;7.63;;
572;SDS011;271;51.114;13.780;2024-02-26T10:15:34;22.90;;;7.77;;
572;SDS011;271;51.114;13.780;2024-02-26T10:18:22;20.60;;;7.17;;
572;SDS011;271;51.114;13.780;2024-02-26T10:21:10;20.60;;;6.67;;
572;SDS011;271;51.114;13.780;2024-02-26T10:23:57;20.73;;;7.37;;
572;SDS011;271;51.114;13.780;2024-02-26T10:26:45;20.70;;;7.07;;
572;SDS011;271;51.114;13.780;2024-02-26T10:29:34;21.63;;;7.00;;
572;SDS011;271;51.114;13.780;2024-02-26T10:32:23;21.97;;;7.13;;
572;SDS011;271;51.114;13.780;2024-02-26T10:35:11;20.17;;;6.57;;
572;SDS011;271;51.114;13.780;2024-02-26T10:37:59;20.93;;;7.43;;
572;SDS011;271;51.114;13.780;2024-02-26T10:40:50;22.00;;;7.70;;
572;SDS011;271;51.114;13.780;2024-02-26T10:43:38;20.57;;;7.50;;
572;SDS011;271;51.114;13.780;2024-02-26T10:46:26;20.43;;;7.33;;
572;SDS011;271;51.114;13.780;2024-02-26T10:49:18;20.80;;;7.40;;
572;SDS011;271;51.114;13.780;2024-02-26T10:52:06;21.70;;;7.30;;
572;SDS011;271;51.114;13.780;2024-02-26T10:54:55;20.63;;;7.63;;
572;SDS011;271;51.114;13.780;2024-02-26T10:57:48;20.17;;;6.60;;
572;SDS011;271;51.114;13.780;2024-02-26T11:00:39;22.20;;;8.03;;
572;SDS011;271;51.114;13.780;2024-02-26T11:03:27;20.83;;;6.67;;
572;SDS011;271;51.114;13.780;2024-02-26T11:06:19;22.17;;;7.53;;
572;SDS011;271;51.114;13.780;2024-02-26T11:09:08;20.87;;;6.70;;
572;SDS011;271;51.114;13.780;2024-02-26T11:12:00;20.50;;;6.50;;
572;SDS011;271;51.114;13.780;2024-02-26T11:14:54;19.83;;;6.60;;
572;SDS011;271;51.114;13.780;2024-02-26T11:17:44;18.53;;;5.53;;
572;SDS011;271;51.114;13.780;2024-02-26T11:20:33;20.50;;;6.33;;
572;SDS011;271;51.114;13.780;2024-02-26T11:23:22;19.53;;;6.93;;
572;SDS011;271;51.114;13.780;2024-02-26T11:26:10;20.97;;;7.43;;
572;SDS011;271;51.114;13.780;2024-02-26T11:28:59;20.30;;;6.97;;
572;SDS011;271;51.114;13.780;2024-02-26T11:31:47;19.80;;;6.27;;
572;SDS011;271;51.114;13.780;2024-02-26T11:34:35;19.73;;;6.10;;
572;SDS011;271;51.114;13.780;2024-02-26T11:37:24;20.97;;;7.10;;
572;SDS011;271;51.114;13.780;2024-02-26T11:40:14;20.00;;;5.90;;
572;SDS011;271;51.114;13.780;2024-02-26T11:43:02;19.47;;;6.03;;
572;SDS011;271;51.114;13.780;2024-02-26T11:45:52;21.20;;;7.63;;
572;SDS011;271;51.114;13.780;2024-02-26T11:48:42;20.97;;;6.30;;
572;SDS011;271;51.114;13.780;2024-02-26T11:51:32;21.97;;;6.90;;
572;SDS011;271;51.114;13.780;2024-02-26T11:57:42;20.27;;;6.00;;
572;SDS011;271;51.114;13.780;2024-02-26T12:00:29;19.90;;;6.00;;
572;SDS011;271;51.114;13.780;2024-02-26T12:03:18;18.80;;;5.50;;
572;SDS011;271;51.114;13.780;2024-02-26T12:06:06;19.23;;;5.83;;
572;SDS011;271;51.114;13.780;2024-02-26T12:08:55;19.77;;;6.20;;
572;SDS011;271;51.114;13.780;2024-02-26T12:11:43;20.37;;;7.00;;
572;SDS011;271;51.114;13.780;2024-02-26T12:14:38;20.57;;;6.80;;
572;SDS011;271;51.114;13.780;2024-02-26T12:17:26;19.30;;;6.47;;
572;SDS011;271;51.114;13.780;2024-02-26T12:20:14;18.97;;;5.70;;
572;SDS011;271;51.114;13.780;2024-02-26T12:23:05;22.03;;;6.10;;
572;SDS011;271;51.114;13.780;2024-02-26T12:25:53;19.03;;;5.87;;
572;SDS011;271;51.114;13.780;2024-02-26T12:28:41;19.80;;;5.70;;
572;SDS011;271;51.114;13.780;2024-02-26T12:31:30;19.53;;;5.83;;
572;SDS011;271;51.114;13.780;2024-02-26T12:34:18;19.20;;;6.33;;
572;SDS011;271;51.114;13.780;2024-02-26T12:37:06;20.90;;;5.67;;
572;SDS011;271;51.114;13.780;2024-02-26T12:39:55;20.03;;;5.13;;
572;SDS011;271;51.114;13.780;2024-02-26T12:42:42;20.30;;;6.60;;
572;SDS011;271;51.114;13.780;2024-02-26T12:45:30;22.30;;;7.30;;
572;SDS011;271;51.114;13.780;2024-02-26T12:48:20;20.57;;;6.20;;
572;SDS011;271;51.114;13.780;2024-02-26T12:51:07;20.00;;;5.83;;
572;SDS011;271;51.114;13.780;2024-02-26T12:53:56;21.73;;;6.80;;
572;SDS011;271;51.114;13.780;2024-02-26T12:56:44;20.53;;;6.30;;
572;SDS011;271;51.114;13.780;2024-02-26T12:59:33;20.37;;;6.50;;
572;SDS011;271;51.114;13.780;2024-02-26T13:02:22;19.20;;;5.60;;
572;SDS011;271;51.114;13.780;2024-02-26T13:05:12;21.17;;;6.83;;
572;SDS011;271;51.114;13.780;2024-02-26T13:08:01;20.37;;;5.93;;
572;SDS011;271;51.114;13.780;2024-02-26T13:10:49;18.60;;;5.87;;
572;SDS011;271;51.114;13.780;2024-02-26T13:13:37;19.77;;;5.83;;
572;SDS011;271;51.114;13.780;2024-02-26T13:16:25;19.63;;;6.03;;
572;SDS011;271;51.114;13.780;2024-02-26T13:19:13;18.80;;;5.60;;
572;SDS011;271;51.114;13.780;2024-02-26T13:22:06;20.90;;;6.73;;
572;SDS011;271;51.114;13.780;2024-02-26T13:24:54;19.67;;;6.10;;
572;SDS011;271;51.114;13.780;2024-02-26T13:27:42;21.73;;;6.00;;
572;SDS011;271;51.114;13.780;2024-02-26T13:30:29;20.20;;;5.97;;
572;SDS011;271;51.114;13.780;2024-02-26T13:33:17;20.57;;;6.20;;
572;SDS011;271;51.114;13.780;2024-02-26T13:36:06;20.20;;;6.13;;
572;SDS011;271;51.114;13.780;2024-02-26T13:38:56;19.77;;;6.20;;
572;SDS011;271;51.114;13.780;2024-02-26T13:41:44;19.80;;;6.00;;
572;SDS011;271;51.114;13.780;2024-02-26T13:44:31;18.57;;;5.67;;
572;SDS011;271;51.114;13.780;2024-02-26T13:47:22;19.23;;;6.30;;
572;SDS011;271;51.114;13.780;2024-02-26T13:50:10;20.77;;;5.27;;
572;SDS011;271;51.114;13.780;2024-02-26T13:52:57;20.77;;;6.13;;
572;SDS011;271;51.114;13.780;2024-02-26T13:55:47;19.43;;;6.50;;
572;SDS011;271;51.114;13.780;2024-02-26T13:58:34;19.97;;;6.30;;
572;SDS011;271;51.114;13.780;2024-02-26T14:01:22;19.20;;;5.87;;
572;SDS011;271;51.114;13.780;2024-02-26T14:04:10;20.83;;;6.50;;
572;SDS011;271;51.114;13.780;2024-02-26T14:06:58;20.40;;;6.63;;
572;SDS011;271;51.114;13.780;2024-02-26T14:09:45;20.67;;;6.07;;
572;SDS011;271;51.114;13.780;2024-02-26T14:12:37;22.20;;;6.93;;
572;SDS011;271;51.114;13.780;2024-02-26T14:15:25;19.50;;;5.97;;
572;SDS011;271;51.114;13.780;2024-02-26T14:18:14;19.37;;;6.60;;
572;SDS011;271;51.114;13.780;2024-02-26T14:21:02;18.77;;;5.90;;
572;SDS011;271;51.114;13.780;2024-02-26T14:23:52;18.83;;;5.40;;
572;SDS011;271;51.114;13.780;2024-02-26T14:26:42;19.50;;;6.00;;
572;SDS011;271;51.114;13.780;2024-02-26T14:29:31;21.07;;;6.93;;
572;SDS011;271;51.114;13.780;2024-02-26T14:32:19;22.33;;;6.37;;
572;SDS011;271;51.114;13.780;2024-02-26T14:35:08;21.30;;;5.30;;
572;SDS011;271;51.114;13.780;2024-02-26T14:37:56;21.17;;;6.90;;
572;SDS011;271;51.114;13.780;2024-02-26T14:40:47;18.63;;;5.03;;
572;SDS011;271;51.114;13.780;2024-02-26T14:43:35;19.10;;;5.63;;
572;SDS011;271;51.114;13.780;2024-02-26T14:46:27;18.83;;;5.90;;
572;SDS011;271;51.114;13.780;2024-02-26T14:49:14;19.70;;;5.87;;
572;SDS011;271;51.114;13.780;2024-02-26T14:52:03;20.20;;;6.60;;
572;SDS011;271;51.114;13.780;2024-02-26T14:54:51;19.90;;;6.50;;
572;SDS011;271;51.114;13.780;2024-02-26T14:57:39;19.40;;;5.60;;
572;SDS011;271;51.114;13.780;2024-02-26T15:00:27;25.33;;;6.10;;
572;SDS011;271;51.114;13.780;2024-02-26T15:03:16;19.03;;;5.63;;
572;SDS011;271;51.114;13.780;2024-02-26T15:06:04;18.90;;;5.90;;
572;SDS011;271;51.114;13.780;2024-02-26T15:08:52;21.50;;;5.80;;
572;SDS011;271;51.114;13.780;2024-02-26T15:11:40;18.17;;;5.50;;
572;SDS011;271;51.114;13.780;2024-02-26T15:14:35;19.10;;;5.23;;
572;SDS011;271;51.114;13.780;2024-02-26T15:17:23;20.33;;;6.20;;
572;SDS011;271;51.114;13.780;2024-02-26T15:20:15;17.87;;;5.40;;
572;SDS011;271;51.114;13.780;2024-02-26T15:23:03;19.40;;;6.40;;
572;SDS011;271;51.114;13.780;2024-02-26T15:25:52;18.47;;;4.83;;
572;SDS011;271;51.114;13.780;2024-02-26T15:28:39;21.80;;;7.10;;
572;SDS011;271;51.114;13.780;2024-02-26T15:31:27;20.10;;;6.23;;
572;SDS011;271;51.114;13.780;2024-02-26T15:34:15;22.47;;;6.50;;
572;SDS011;271;51.114;13.780;2024-02-26T15:37:04;18.90;;;5.60;;
572;SDS011;271;51.114;13.780;2024-02-26T15:39:52;19.17;;;6.10;;
572;SDS011;271;51.114;13.780;2024-02-26T15:42:39;19.20;;;5.97;;
572;SDS011;271;51.114;13.780;2024-02-26T15:45:27;19.53;;;5.33;;
572;SDS011;271;51.114;13.780;2024-02-26T15:48:18;18.40;;;5.10;;
572;SDS011;271;51.114;13.780;2024-02-26T15:51:07;19.00;;;5.90;;
572;SDS011;271;51.114;13.780;2024-02-26T15:54:06;18.90;;;5.57;;
572;SDS011;271;51.114;13.780;2024-02-26T15:56:53;18.90;;;6.37;;
572;SDS011;271;51.114;13.780;2024-02-26T15:59:41;19.70;;;6.77;;
572;SDS011;271;51.114;13.780;2024-02-26T16:02:29;21.03;;;6.73;;
572;SDS011;271;51.114;13.780;2024-02-26T16:05:16;21.10;;;6.67;;
572;SDS011;271;51.114;13.780;2024-02-26T16:08:05;19.30;;;5.73;;
572;SDS011;271;51.114;13.780;2024-02-26T16:10:57;19.50;;;6.10;;
572;SDS011;271;51.114;13.780;2024-02-26T16:13:45;19.30;;;5.80;;
572;SDS011;271;51.114;13.780;2024-02-26T16:16:33;20.13;;;6.40;;
572;SDS011;271;51.114;13.780;2024-02-26T16:19:22;20.20;;;5.77;;
572;SDS011;271;51.114;13.780;2024-02-26T16:22:11;25.77;;;6.40;;
572;SDS011;271;51.114;13.780;2024-02-26T16:24:59;19.83;;;6.50;;
572;SDS011;271;51.114;13.780;2024-02-26T16:27:48;18.77;;;5.60;;
572;SDS011;271;51.114;13.780;2024-02-26T16:30:36;22.27;;;6.33;;
572;SDS011;271;51.114;13.780;2024-02-26T16:33:24;22.33;;;6.30;;
572;SDS011;271;51.114;13.780;2024-02-26T16:36:12;22.40;;;7.27;;
572;SDS011;271;51.114;13.780;2024-02-26T16:38:59;19.47;;;7.00;;
572;SDS011;271;51.114;13.780;2024-02-26T16:41:47;20.53;;;5.90;;
572;SDS011;271;51.114;13.780;2024-02-26T16:44:36;20.40;;;5.90;;
572;SDS011;271;51.114;13.780;2024-02-26T16:47:24;21.37;;;6.23;;
572;SDS011;271;51.114;13.780;2024-02-26T16:50:12;20.50;;;5.67;;
572;SDS011;271;51.114;13.780;2024-02-26T16:53:00;20.27;;;5.27;;
572;SDS011;271;51.114;13.780;2024-02-26T16:55:47;19.30;;;5.70;;
572;SDS011;271;51.114;13.780;2024-02-26T16:58:35;19.90;;;6.63;;
572;SDS011;271;51.114;13.780;2024-02-26T17:01:24;19.50;;;6.17;;
572;SDS011;271;51.114;13.780;2024-02-26T17:04:12;20.33;;;6.30;;
572;SDS011;271;51.114;13.780;2024-02-26T17:07:00;20.70;;;5.80;;
572;SDS011;271;51.114;13.780;2024-02-26T17:09:47;22.93;;;6.30;;
572;SDS011;271;51.114;13.780;2024-02-26T17:12:35;22.77;;;7.67;;
572;SDS011;271;51.114;13.780;2024-02-26T17:15:23;23.07;;;6.63;;
572;SDS011;271;51.114;13.780;2024-02-26T17:18:13;23.20;;;7.50;;
572;SDS011;271;51.114;13.780;2024-02-26T17:21:02;27.83;;;9.77;;
572;SDS011;271;51.114;13.780;2024-02-26T17:23:51;24.77;;;7.70;;
572;SDS011;271;51.114;13.780;2024-02-26T17:26:47;25.20;;;8.37;;
572;SDS011;271;51.114;13.780;2024-02-26T17:29:37;23.80;;;9.03;;